Home   Weather   USA   Plainfield   Past weeks
Flag for USA

Past Weather in Plainfield, Illinois, USA — Yesterday and Last 2 Weeks

Currently: 39 °F. Mostly cloudy. (Weather station: Lewis University Airport, USA). See more current weather

Past Weather in Plainfield — Graph

°F

Plainfield Temperature Yesterday

Maximum temperature yesterday: 41 °F (at 1:55 pm)
Minimum temperature yesterday: 25 °F (at 3:15 am)
Average temperature yesterday: 33 °F

High & Low Weather Summary for the Past Weeks

 TemperatureHumidityPressure
High50 °F (Feb 7, 2:36 am)100% (Jan 24, 11:14 pm)30.65 "Hg (Jan 24, 11:14 pm)
Low0 °F (Jan 31, 5:35 am)39% (Feb 3, 12:45 pm)29.65 "Hg (Jan 25, 12:56 pm)
Average23 °F80%30.15 "Hg
* Reported Jan 24 11:14 pm — Feb 8 11:56 pm, Plainfield. Weather by CustomWeather, © 2023

Note: Actual official high and low records may vary slightly from our data, if they occured in-between our weather recording intervals... More about our weather records

Plainfield Weather History for the Previous 24 Hours

Scroll right to see more
 ConditionsComfort  
Time TempWeatherWind HumidityBarometerVisibility
11:56 pm
Wed, Feb 8
39 °FMostly cloudy.12 mph93%29.94 "Hg10 mi
11:35 pm39 °FMostly cloudy.9 mph87%29.96 "Hg10 mi
11:15 pm37 °FOvercast.10 mph93%29.97 "Hg10 mi
10:55 pm37 °FMostly cloudy.8 mph93%29.97 "Hg9 mi
10:35 pm37 °FLight rain. Mostly cloudy.9 mph93%29.99 "Hg7 mi
10:15 pm37 °FLight rain. Overcast.9 mph87%30.00 "Hg9 mi
9:55 pm37 °FOvercast.9 mph87%30.01 "Hg10 mi
9:35 pm37 °FOvercast.7 mph87%30.02 "Hg10 mi
9:15 pm37 °FOvercast.8 mph87%30.03 "Hg10 mi
8:55 pm37 °FOvercast.7 mph87%30.04 "Hg10 mi
8:17 pm37 °FMostly cloudy.8 mph81%30.08 "Hg10 mi
7:55 pm37 °FPassing clouds.9 mph81%30.10 "Hg10 mi
6:55 pm36 °FPassing clouds.7 mph93%30.13 "Hg10 mi
4:47 pm37 °FSunny.8 mph81%30.16 "Hg10 mi
3:55 pm39 °FSunny.7 mph81%30.17 "Hg10 mi
2:55 pm41 °FSunny.7 mph76%30.17 "Hg10 mi
1:55 pm41 °FSunny.6 mph76%30.19 "Hg10 mi
12:55 pm39 °FSunny.6 mph81%30.23 "Hg10 mi
11:55 am37 °FSunny.7 mph81%30.25 "Hg10 mi
10:58 am36 °FSunny.7 mph87%30.27 "Hg10 mi
9:55 am32 °FSunny.No wind93%30.28 "Hg10 mi
8:59 am30 °FSunny.No wind93%30.29 "Hg10 mi
7:52 am27 °FSunny.5 mph100%30.29 "Hg10 mi
6:53 am25 °FClear.No wind100%30.26 "Hg10 mi
5:55 am25 °FClear.6 mph100%30.26 "Hg10 mi
5:35 am27 °FClear.3 mph100%30.28 "Hg10 mi
5:15 am25 °FClear.No wind100%30.28 "Hg10 mi
4:54 am27 °FClear.6 mph100%30.28 "Hg10 mi
4:16 am27 °FClear.No wind100%30.28 "Hg10 mi
3:55 am27 °FClear.6 mph100%30.28 "Hg10 mi
3:35 am27 °FClear.5 mph100%30.29 "Hg10 mi
3:15 am25 °FClear.5 mph100%30.27 "Hg10 mi
2:55 am27 °FClear.5 mph100%30.27 "Hg10 mi
2:17 am27 °FClear.No wind100%30.26 "Hg10 mi
1:56 am27 °FClear.6 mph100%30.26 "Hg10 mi
1:35 am28 °FClear.5 mph100%30.25 "Hg10 mi
1:15 am28 °FClear.5 mph100%30.24 "Hg10 mi
Weather by CustomWeather, © 2023

See weather overview